createdAt,value
2023-01-17T00:02:26.178Z,100.00
2023-01-17T00:05:11.439Z,100.00
2023-01-17T00:07:56.747Z,100.00
2023-01-17T00:10:26.517Z,100.00
2023-01-17T00:12:57.621Z,100.00
2023-01-17T00:15:26.510Z,100.00
2023-01-17T00:17:54.737Z,100.00
2023-01-17T00:20:42.164Z,100.00
2023-01-17T00:23:33.118Z,100.00
2023-01-17T00:26:03.996Z,100.00
2023-01-17T00:28:34.123Z,100.00
2023-01-17T00:31:01.263Z,100.00
2023-01-17T00:33:28.146Z,100.00
2023-01-17T00:35:57.337Z,100.00
2023-01-17T00:38:25.433Z,96.07
2023-01-17T00:40:52.654Z,98.92
2023-01-17T00:43:40.377Z,99.90
2023-01-17T00:46:26.903Z,95.71
2023-01-17T00:49:12.039Z,94.09
2023-01-17T00:51:57.471Z,95.46
2023-01-17T00:54:42.607Z,92.49
2023-01-17T00:57:28.124Z,94.76
2023-01-17T01:00:13.306Z,92.11
2023-01-17T01:02:59.822Z,94.04
2023-01-17T01:05:45.009Z,93.78
2023-01-17T01:08:38.343Z,93.81
2023-01-17T01:11:25.736Z,93.92
2023-01-17T01:14:10.979Z,93.70
2023-01-17T01:16:56.249Z,96.63
2023-01-17T01:19:43.290Z,97.89
2023-01-17T01:22:28.607Z,96.98
2023-01-17T01:25:13.771Z,96.89
2023-01-17T01:27:59.026Z,97.68
2023-01-17T01:30:44.592Z,97.06
2023-01-17T01:33:18.743Z,97.32
2023-01-17T01:35:49.282Z,98.00
2023-01-17T01:38:17.020Z,96.87
2023-01-17T01:40:46.606Z,98.10
2023-01-17T01:43:16.282Z,98.80
2023-01-17T01:45:49.356Z,99.20
2023-01-17T01:48:34.495Z,100.00
2023-01-17T01:51:06.817Z,100.00
2023-01-17T01:53:38.188Z,100.00
2023-01-17T01:56:10.372Z,99.34
2023-01-17T01:58:39.064Z,100.00
2023-01-17T02:01:09.206Z,100.00
2023-01-17T02:03:40.738Z,100.00
2023-01-17T02:06:28.242Z,100.00
2023-01-17T02:08:58.989Z,100.00
2023-01-17T02:11:27.279Z,99.65
2023-01-17T02:13:55.056Z,100.00
2023-01-17T02:16:39.158Z,100.00
2023-01-17T02:19:31.092Z,100.00
2023-01-17T02:22:14.755Z,99.63
2023-01-17T02:25:07.889Z,98.30
2023-01-17T02:27:54.503Z,99.14
2023-01-17T02:30:34.176Z,98.74
2023-01-17T02:33:13.263Z,100.00
2023-01-17T02:35:49.273Z,100.00
2023-01-17T02:38:28.621Z,100.00
2023-01-17T02:41:02.322Z,100.00
2023-01-17T02:43:30.283Z,100.00
2023-01-17T02:45:59.304Z,100.00
2023-01-17T02:48:31.313Z,100.00
2023-01-17T02:51:31.703Z,100.00
2023-01-17T02:54:15.044Z,100.00
2023-01-17T02:56:53.054Z,100.00
2023-01-17T02:59:33.992Z,100.00
2023-01-17T03:02:11.941Z,100.00
2023-01-17T03:04:45.416Z,100.00
2023-01-17T03:07:17.519Z,100.00
2023-01-17T03:09:47.537Z,100.00
2023-01-17T03:12:15.370Z,100.00
2023-01-17T03:14:43.038Z,100.00
2023-01-17T03:17:12.144Z,100.00
2023-01-17T03:19:40.001Z,100.00
2023-01-17T03:22:07.751Z,100.00
2023-01-17T03:24:35.361Z,100.00
2023-01-17T03:27:02.996Z,100.00
2023-01-17T03:29:30.733Z,100.00
2023-01-17T03:31:58.337Z,100.00
2023-01-17T03:34:27.364Z,100.00
2023-01-17T03:36:55.031Z,100.00
2023-01-17T03:39:22.657Z,100.00
2023-01-17T03:41:50.345Z,100.00
2023-01-17T03:44:19.130Z,100.00
2023-01-17T03:46:46.762Z,100.00
2023-01-17T03:49:14.395Z,100.00
2023-01-17T03:51:43.709Z,100.00
2023-01-17T03:54:11.548Z,100.00
2023-01-17T03:56:39.176Z,100.00
2023-01-17T03:59:06.814Z,100.00
2023-01-17T04:01:34.620Z,100.00
2023-01-17T04:04:02.428Z,100.00
2023-01-17T04:06:30.154Z,100.00
2023-01-17T04:08:59.157Z,100.00
2023-01-17T04:11:26.864Z,100.00
2023-01-17T04:13:55.188Z,100.00
2023-01-17T04:16:26.551Z,100.00
2023-01-17T04:18:54.275Z,100.00
2023-01-17T04:21:22.152Z,100.00
2023-01-17T04:23:50.071Z,100.00
2023-01-17T04:26:19.037Z,100.00
2023-01-17T04:28:46.784Z,100.00
2023-01-17T04:31:16.983Z,100.00
2023-01-17T04:33:44.777Z,100.00
2023-01-17T04:36:12.518Z,100.00
2023-01-17T04:38:40.437Z,100.00
2023-01-17T04:41:08.165Z,100.00
2023-01-17T04:43:37.227Z,100.00
2023-01-17T04:46:09.868Z,100.00
2023-01-17T04:48:38.235Z,100.00
2023-01-17T04:51:07.064Z,100.00
2023-01-17T04:53:34.854Z,100.00
2023-01-17T04:56:02.924Z,100.00
2023-01-17T04:58:31.115Z,100.00
2023-01-17T05:01:04.120Z,100.00
2023-01-17T05:03:32.347Z,100.00
2023-01-17T05:06:00.176Z,100.00
2023-01-17T05:08:28.106Z,100.00
2023-01-17T05:10:55.765Z,100.00
2023-01-17T05:13:23.445Z,100.00
2023-01-17T05:15:51.313Z,100.00
2023-01-17T05:18:20.357Z,100.00
2023-01-17T05:20:47.974Z,100.00
2023-01-17T05:23:15.583Z,100.00
2023-01-17T05:25:44.276Z,100.00
2023-01-17T05:28:13.448Z,100.00
2023-01-17T05:30:41.602Z,100.00
2023-01-17T05:33:10.196Z,100.00
2023-01-17T05:35:39.267Z,100.00
2023-01-17T05:38:06.995Z,100.00
2023-01-17T05:40:34.963Z,100.00
2023-01-17T05:43:04.028Z,100.00
2023-01-17T05:45:33.578Z,100.00
2023-01-17T05:48:01.433Z,100.00
2023-01-17T05:50:30.707Z,100.00
2023-01-17T05:53:01.676Z,100.00
2023-01-17T05:55:30.854Z,100.00
2023-01-17T05:57:59.481Z,100.00
2023-01-17T06:00:27.502Z,100.00
2023-01-17T06:02:55.961Z,100.00
2023-01-17T06:05:24.657Z,100.00
2023-01-17T06:07:52.394Z,100.00
2023-01-17T06:10:23.127Z,100.00
2023-01-17T06:12:51.363Z,100.00
2023-01-17T06:15:19.452Z,100.00
2023-01-17T06:17:47.091Z,100.00
2023-01-17T06:20:14.724Z,100.00
2023-01-17T06:22:42.388Z,100.00
2023-01-17T06:25:10.808Z,100.00
2023-01-17T06:27:39.753Z,100.00
2023-01-17T06:30:08.727Z,100.00
2023-01-17T06:32:36.373Z,100.00
2023-01-17T06:35:04.043Z,100.00
2023-01-17T06:37:31.759Z,100.00
2023-01-17T06:39:59.376Z,100.00
2023-01-17T06:42:26.987Z,100.00
2023-01-17T06:44:56.026Z,100.00
2023-01-17T06:47:24.018Z,100.00
2023-01-17T06:49:51.691Z,100.00
2023-01-17T06:52:19.306Z,100.00
2023-01-17T06:54:47.044Z,100.00
2023-01-17T06:57:14.681Z,100.00
2023-01-17T06:59:42.324Z,100.00
2023-01-17T07:02:12.280Z,100.00
2023-01-17T07:04:39.944Z,100.00
2023-01-17T07:07:07.601Z,100.00
2023-01-17T07:09:35.284Z,100.00
2023-01-17T07:12:03.716Z,100.00
2023-01-17T07:14:31.416Z,100.00
2023-01-17T07:16:59.079Z,100.00
2023-01-17T07:19:28.067Z,100.00
2023-01-17T07:21:55.802Z,100.00
2023-01-17T07:24:23.462Z,100.00
2023-01-17T07:26:51.543Z,100.00
2023-01-17T07:29:19.786Z,100.00
2023-01-17T07:31:49.980Z,100.00
2023-01-17T07:34:17.751Z,100.00
2023-01-17T07:36:48.481Z,100.00
2023-01-17T07:39:16.278Z,100.00
2023-01-17T07:41:43.895Z,100.00
2023-01-17T07:44:12.959Z,100.00
2023-01-17T07:46:40.865Z,100.00
2023-01-17T07:49:08.491Z,100.00
2023-01-17T07:51:36.142Z,100.00
2023-01-17T07:54:05.723Z,100.00
2023-01-17T07:56:34.729Z,100.00
2023-01-17T07:59:02.739Z,100.00
2023-01-17T08:01:31.235Z,100.00
2023-01-17T08:03:59.015Z,100.00
2023-01-17T08:06:27.687Z,100.00
2023-01-17T08:08:58.719Z,100.00
2023-01-17T08:11:27.924Z,100.00
2023-01-17T08:13:59.156Z,100.00
2023-01-17T08:16:28.600Z,100.00
2023-01-17T08:18:56.732Z,100.00
2023-01-17T08:21:25.235Z,100.00
2023-01-17T08:23:53.221Z,100.00
2023-01-17T08:26:22.594Z,100.00
2023-01-17T08:28:55.958Z,100.00
2023-01-17T08:31:25.549Z,100.00
2023-01-17T08:33:53.414Z,100.00
2023-01-17T08:36:21.063Z,100.00
2023-01-17T08:38:52.607Z,100.00
2023-01-17T08:41:20.881Z,100.00
2023-01-17T08:43:49.385Z,100.00
2023-01-17T08:46:19.179Z,100.00
2023-01-17T08:48:47.198Z,100.00
2023-01-17T08:51:15.029Z,100.00
2023-01-17T08:53:43.181Z,100.00
2023-01-17T08:56:10.860Z,100.00
2023-01-17T08:58:38.503Z,100.00
2023-01-17T09:01:07.034Z,100.00
2023-01-17T09:03:38.314Z,100.00
2023-01-17T09:06:08.853Z,100.00
2023-01-17T09:08:37.967Z,100.00
2023-01-17T09:11:06.538Z,100.00
2023-01-17T09:13:34.252Z,100.00
2023-01-17T09:16:02.361Z,100.00
2023-01-17T09:18:32.044Z,100.00
2023-01-17T09:21:09.834Z,100.00
2023-01-17T09:23:37.539Z,100.00
2023-01-17T09:26:05.407Z,100.00
2023-01-17T09:28:39.547Z,100.00
2023-01-17T09:31:08.231Z,100.00
2023-01-17T09:33:36.167Z,100.00
2023-01-17T09:36:05.819Z,100.00
2023-01-17T09:38:34.027Z,100.00
2023-01-17T09:41:03.199Z,100.00
2023-01-17T09:43:41.065Z,100.00
2023-01-17T09:46:22.752Z,100.00
2023-01-17T09:48:54.830Z,100.00
2023-01-17T09:51:25.194Z,100.00
2023-01-17T09:53:54.598Z,100.00
2023-01-17T09:56:29.441Z,100.00
2023-01-17T09:59:16.804Z,100.00
2023-01-17T10:01:51.757Z,100.00
2023-01-17T10:04:34.862Z,100.00
2023-01-17T10:07:14.262Z,100.00
2023-01-17T10:10:04.614Z,100.00
2023-01-17T10:12:40.863Z,100.00
2023-01-17T10:15:27.962Z,100.00
2023-01-17T10:18:04.508Z,100.00
2023-01-17T10:20:47.544Z,100.00
2023-01-17T10:23:34.185Z,100.00
2023-01-17T10:26:03.874Z,100.00
2023-01-17T10:28:36.980Z,100.00
2023-01-17T10:31:08.694Z,100.00
2023-01-17T10:33:41.337Z,100.00
2023-01-17T10:36:15.711Z,100.00
2023-01-17T10:38:47.848Z,100.00
2023-01-17T10:41:19.252Z,97.99
2023-01-17T10:43:56.192Z,98.97
2023-01-17T10:46:28.694Z,95.89
2023-01-17T10:48:57.507Z,92.99
2023-01-17T10:51:43.837Z,91.15
2023-01-17T10:54:24.840Z,91.85
2023-01-17T10:56:53.002Z,90.09
2023-01-17T10:59:30.340Z,88.22
2023-01-17T11:01:58.170Z,89.92
2023-01-17T11:04:33.601Z,89.11
2023-01-17T11:07:12.965Z,89.96
2023-01-17T11:09:43.692Z,90.24
2023-01-17T11:12:21.912Z,93.25
2023-01-17T11:14:58.649Z,89.80
2023-01-17T11:17:27.525Z,87.87
2023-01-17T11:19:55.619Z,88.42
2023-01-17T11:22:24.877Z,90.38
2023-01-17T11:24:56.073Z,89.26
2023-01-17T11:27:28.285Z,86.71
2023-01-17T11:30:15.740Z,84.32
2023-01-17T11:32:52.974Z,83.68
2023-01-17T11:35:25.400Z,81.17
2023-01-17T11:38:04.400Z,83.81
2023-01-17T11:40:38.720Z,83.81
2023-01-17T11:43:19.927Z,86.13
2023-01-17T11:46:00.550Z,86.00
2023-01-17T11:48:36.083Z,85.09
2023-01-17T11:51:05.578Z,84.65
2023-01-17T11:53:37.481Z,87.86
2023-01-17T11:56:09.955Z,86.30
2023-01-17T11:58:40.843Z,87.26
2023-01-17T12:01:31.208Z,85.80
2023-01-17T12:04:15.706Z,82.97
2023-01-17T12:06:57.536Z,82.72
2023-01-17T12:09:34.083Z,83.29
2023-01-17T12:12:29.889Z,80.50
2023-01-17T12:15:07.254Z,79.54
2023-01-17T12:17:53.694Z,76.05
2023-01-17T12:20:28.860Z,74.01
2023-01-17T12:23:25.449Z,74.17
2023-01-17T12:26:10.328Z,74.63
2023-01-17T12:28:58.417Z,73.75
2023-01-17T12:31:33.560Z,73.55
2023-01-17T12:34:15.501Z,70.81
2023-01-17T12:36:48.528Z,69.60
2023-01-17T12:39:20.145Z,69.03
2023-01-17T12:41:58.682Z,71.22
2023-01-17T12:44:40.970Z,70.36
2023-01-17T12:47:08.666Z,71.19
2023-01-17T12:49:43.818Z,69.76
2023-01-17T12:52:20.158Z,69.36
2023-01-17T12:54:52.491Z,66.83
2023-01-17T12:57:24.435Z,66.89
2023-01-17T12:59:59.262Z,64.73
2023-01-17T13:02:37.136Z,64.19
2023-01-17T13:05:10.584Z,63.22
2023-01-17T13:07:47.150Z,63.78
2023-01-17T13:10:32.066Z,62.74
2023-01-17T13:13:22.456Z,63.91
2023-01-17T13:16:18.898Z,64.95
2023-01-17T13:19:16.242Z,65.27
2023-01-17T13:22:07.849Z,66.70
2023-01-17T13:25:07.360Z,65.68
2023-01-17T13:28:22.746Z,68.19
2023-01-17T13:31:35.636Z,65.75
2023-01-17T13:34:47.252Z,65.32
2023-01-17T13:37:52.235Z,66.38
2023-01-17T13:40:50.540Z,64.08
2023-01-17T13:43:41.354Z,62.31
2023-01-17T13:46:32.731Z,63.40
2023-01-17T13:49:34.109Z,63.11
2023-01-17T13:52:35.684Z,61.12
2023-01-17T13:55:46.507Z,61.11
2023-01-17T13:58:58.250Z,62.79
2023-01-17T14:01:54.696Z,60.93
2023-01-17T14:05:08.717Z,60.96
2023-01-17T14:07:59.665Z,62.20
2023-01-17T14:10:49.824Z,61.32
2023-01-17T14:13:39.654Z,62.37
2023-01-17T14:16:31.241Z,62.00
2023-01-17T14:19:27.807Z,61.71
2023-01-17T14:22:24.696Z,62.96
2023-01-17T14:25:18.004Z,63.33
2023-01-17T14:28:20.003Z,64.11
2023-01-17T14:31:11.460Z,64.11
2023-01-17T14:34:12.473Z,64.44
2023-01-17T14:37:19.110Z,63.20
2023-01-17T14:40:19.140Z,63.32
2023-01-17T14:43:11.908Z,64.50
2023-01-17T14:46:02.843Z,65.29
2023-01-17T14:48:51.602Z,63.68
2023-01-17T14:51:39.544Z,64.99
2023-01-17T14:54:28.887Z,66.12
2023-01-17T14:57:25.321Z,67.00
2023-01-17T15:00:20.132Z,69.43
2023-01-17T15:03:12.090Z,70.34
2023-01-17T15:06:11.306Z,69.28
2023-01-17T15:09:03.220Z,71.08
2023-01-17T15:11:54.081Z,72.77
2023-01-17T15:14:45.334Z,68.08
2023-01-17T15:17:33.356Z,64.65
2023-01-17T15:20:21.873Z,66.44
2023-01-17T15:23:18.154Z,68.70
2023-01-17T15:26:10.922Z,70.06
2023-01-17T15:29:05.483Z,70.98
2023-01-17T15:31:55.009Z,73.71
2023-01-17T15:34:46.485Z,75.10
2023-01-17T15:37:36.763Z,76.13
2023-01-17T15:40:27.900Z,77.02
2023-01-17T15:43:21.502Z,78.85
2023-01-17T15:46:24.146Z,77.33
2023-01-17T15:49:18.052Z,80.40
2023-01-17T15:52:16.308Z,80.62
2023-01-17T15:55:13.728Z,83.76
2023-01-17T15:58:02.269Z,85.22
2023-01-17T16:00:50.291Z,86.90
2023-01-17T16:03:39.542Z,83.66
2023-01-17T16:06:45.305Z,87.17
2023-01-17T16:09:43.874Z,85.94
2023-01-17T16:12:31.763Z,88.36
2023-01-17T16:15:20.434Z,89.06
2023-01-17T16:18:16.737Z,90.88
2023-01-17T16:21:18.578Z,92.59
2023-01-17T16:24:10.708Z,90.81
2023-01-17T16:26:58.917Z,93.20
2023-01-17T16:29:46.986Z,93.67
2023-01-17T16:32:34.937Z,94.76
2023-01-17T16:35:24.411Z,95.34
2023-01-17T16:38:16.067Z,95.84
2023-01-17T16:41:05.363Z,95.35
2023-01-17T16:43:59.495Z,95.67
2023-01-17T16:46:47.438Z,95.44
2023-01-17T16:49:35.528Z,94.70
2023-01-17T16:52:23.416Z,93.21
2023-01-17T16:55:15.956Z,94.05
2023-01-17T16:58:04.106Z,92.07
2023-01-17T17:00:52.208Z,91.84
2023-01-17T17:03:41.052Z,91.75
2023-01-17T17:06:31.024Z,90.89
2023-01-17T17:09:21.357Z,92.55
2023-01-17T17:12:10.683Z,94.04
2023-01-17T17:14:58.619Z,93.81
2023-01-17T17:17:48.015Z,92.50
2023-01-17T17:20:35.949Z,92.59
2023-01-17T17:23:23.862Z,91.26
2023-01-17T17:26:11.764Z,91.40
2023-01-17T17:29:01.540Z,90.88
2023-01-17T17:31:49.460Z,90.27
2023-01-17T17:34:38.254Z,91.29
2023-01-17T17:37:28.932Z,89.88
2023-01-17T17:40:17.394Z,91.14
2023-01-17T17:43:05.326Z,88.92
2023-01-17T17:45:54.573Z,87.53
2023-01-17T17:48:42.467Z,88.11
2023-01-17T17:51:32.496Z,87.27
2023-01-17T17:54:22.014Z,87.58
2023-01-17T17:57:10.377Z,86.85
2023-01-17T17:59:59.716Z,85.16
2023-01-17T18:02:49.044Z,89.28
2023-01-17T18:05:36.975Z,88.25
2023-01-17T18:08:24.890Z,86.19
2023-01-17T18:11:18.299Z,88.74
2023-01-17T18:14:09.334Z,88.68
2023-01-17T18:16:57.535Z,87.82
2023-01-17T18:19:47.022Z,87.17
2023-01-17T18:22:34.944Z,85.88
2023-01-17T18:25:22.885Z,87.50
2023-01-17T18:28:10.829Z,87.25
2023-01-17T18:30:58.952Z,85.54
2023-01-17T18:33:46.966Z,86.10
2023-01-17T18:36:36.685Z,85.98
2023-01-17T18:39:26.541Z,87.99
2023-01-17T18:42:14.488Z,87.77
2023-01-17T18:45:02.459Z,87.14
2023-01-17T18:47:50.361Z,87.14
2023-01-17T18:50:38.278Z,87.87
2023-01-17T18:53:28.299Z,87.61
2023-01-17T18:56:19.447Z,88.46
2023-01-17T18:59:08.899Z,90.85
2023-01-17T19:01:56.868Z,89.97
2023-01-17T19:04:44.898Z,89.03
2023-01-17T19:07:33.160Z,88.94
2023-01-17T19:10:22.408Z,88.24
2023-01-17T19:13:10.641Z,88.23
2023-01-17T19:16:00.791Z,87.53
2023-01-17T19:18:48.703Z,87.59
2023-01-17T19:21:37.080Z,87.86
2023-01-17T19:24:25.658Z,87.98
2023-01-17T19:27:14.960Z,90.42
2023-01-17T19:30:02.933Z,88.93
2023-01-17T19:32:51.329Z,90.44
2023-01-17T19:35:39.268Z,90.68
2023-01-17T19:38:27.208Z,91.42
2023-01-17T19:41:17.706Z,92.10
2023-01-17T19:44:09.168Z,92.37
2023-01-17T19:46:57.334Z,93.03
2023-01-17T19:49:45.589Z,91.35
2023-01-17T19:52:33.538Z,91.47
2023-01-17T19:55:25.619Z,91.73
2023-01-17T19:58:13.827Z,90.68
2023-01-17T20:01:14.245Z,88.99
2023-01-17T20:04:03.200Z,88.95
2023-01-17T20:06:51.099Z,89.23
2023-01-17T20:09:39.077Z,87.64
2023-01-17T20:12:27.217Z,86.13
2023-01-17T20:15:15.138Z,85.24
2023-01-17T20:18:04.751Z,83.62
2023-01-17T20:20:57.412Z,83.90
2023-01-17T20:23:47.796Z,81.99
2023-01-17T20:26:36.320Z,82.20
2023-01-17T20:29:24.631Z,81.14
2023-01-17T20:32:12.558Z,80.80
2023-01-17T20:35:01.813Z,80.91
2023-01-17T20:37:52.115Z,80.22
2023-01-17T20:40:41.005Z,77.96
2023-01-17T20:43:28.909Z,79.97
2023-01-17T20:46:17.792Z,78.45
2023-01-17T20:49:07.533Z,78.26
2023-01-17T20:51:57.845Z,78.95
2023-01-17T20:54:45.722Z,80.10
2023-01-17T20:57:34.211Z,78.74
2023-01-17T21:00:22.716Z,79.17
2023-01-17T21:03:10.620Z,77.41
2023-01-17T21:06:02.651Z,78.54
2023-01-17T21:08:52.858Z,77.34
2023-01-17T21:11:40.875Z,76.39
2023-01-17T21:14:28.996Z,78.71
2023-01-17T21:17:16.994Z,78.71
2023-01-17T21:20:07.983Z,76.99
2023-01-17T21:22:56.100Z,77.47
2023-01-17T21:25:56.253Z,77.72
2023-01-17T21:28:46.011Z,82.73
2023-01-17T21:31:35.576Z,78.29
2023-01-17T21:34:25.436Z,81.19
2023-01-17T21:37:13.549Z,81.14
2023-01-17T21:40:03.109Z,81.27
2023-01-17T21:42:54.264Z,84.82
2023-01-17T21:45:42.937Z,85.09
2023-01-17T21:48:31.065Z,84.24
2023-01-17T21:51:21.641Z,85.14
2023-01-17T21:54:09.612Z,87.44
2023-01-17T21:57:15.063Z,87.75
2023-01-17T22:00:06.210Z,81.91
2023-01-17T22:02:59.479Z,83.82
2023-01-17T22:05:47.373Z,84.34
2023-01-17T22:08:36.146Z,87.26
2023-01-17T22:11:25.792Z,82.11
2023-01-17T22:14:13.774Z,85.61
2023-01-17T22:17:03.006Z,79.60
2023-01-17T22:19:50.895Z,82.90
2023-01-17T22:22:38.830Z,87.40
2023-01-17T22:25:26.893Z,86.24
2023-01-17T22:28:14.808Z,86.75
2023-01-17T22:31:11.529Z,88.96
2023-01-17T22:34:02.625Z,88.00
2023-01-17T22:36:50.569Z,81.66
2023-01-17T22:39:38.686Z,81.41
2023-01-17T22:42:26.587Z,85.01
2023-01-17T22:45:14.752Z,85.08
2023-01-17T22:48:02.695Z,84.75
2023-01-17T22:50:51.988Z,81.50
2023-01-17T22:53:41.249Z,81.84
2023-01-17T22:56:31.660Z,81.50
2023-01-17T22:59:19.596Z,83.63
2023-01-17T23:02:07.525Z,81.42
2023-01-17T23:04:55.468Z,84.83
2023-01-17T23:07:44.771Z,84.19
2023-01-17T23:10:50.431Z,83.87
2023-01-17T23:13:38.611Z,85.09
2023-01-17T23:16:44.307Z,84.16
2023-01-17T23:19:34.869Z,83.18
2023-01-17T23:22:24.487Z,86.43
2023-01-17T23:25:14.835Z,86.41
2023-01-17T23:28:11.037Z,87.79
2023-01-17T23:31:04.051Z,87.37
2023-01-17T23:33:51.999Z,89.16
2023-01-17T23:36:39.955Z,89.17
2023-01-17T23:39:28.629Z,94.29
2023-01-17T23:42:35.568Z,93.88
2023-01-17T23:45:23.512Z,97.10
2023-01-17T23:48:11.672Z,96.51
2023-01-17T23:51:02.225Z,100.00
2023-01-17T23:53:53.324Z,100.00
2023-01-17T23:56:41.294Z,100.00
2023-01-17T23:59:30.570Z,100.00
